Time;durP1;ratioP1;P1;durP2;ratioP2;P2;SDS_P1;SDS_P2;PMS_P1;PMS_P2;Temp;Humidity;BMP_temperature;BMP_pressure;BME280_temperature;BME280_humidity;BME280_pressure;Samples;Min_cycle;Max_cycle;Signal;HPM_P1;HPM_P2
2024/02/23 00:00:32;;;;;;;1999.90;999.90;;;;;;;;;;6185606;23;20079;-82
2024/02/23 00:02:58;;;;;;;1999.90;999.90;;;;;;;;;;6185642;23;20021;-82
2024/02/23 00:05:26;;;;;;;1999.90;999.90;;;;;;;;;;6185604;23;20017;-80
2024/02/23 00:07:53;;;;;;;1999.90;999.90;;;;;;;;;;6185275;23;20021;-82
2024/02/23 00:10:19;;;;;;;1999.90;999.90;;;;;;;;;;6184986;23;20470;-82
2024/02/23 00:12:47;;;;;;;1999.90;999.90;;;;;;;;;;6184805;23;20096;-81
2024/02/23 00:15:13;;;;;;;1999.90;999.90;;;;;;;;;;6185783;23;20024;-82
2024/02/23 00:17:40;;;;;;;1999.90;999.90;;;;;;;;;;6185230;23;20025;-80
2024/02/23 00:20:10;;;;;;;1999.90;999.90;;;;;;;;;;6185479;23;20039;-81
2024/02/23 00:22:38;;;;;;;1999.90;999.90;;;;;;;;;;6184699;23;20456;-80
2024/02/23 00:25:05;;;;;;;1999.90;999.90;;;;;;;;;;6185207;23;20027;-81
2024/02/23 00:27:32;;;;;;;1999.90;999.90;;;;;;;;;;6185455;23;20025;-82
2024/02/23 00:29:58;;;;;;;1999.90;999.90;;;;;;;;;;6184819;23;20021;-81
2024/02/23 00:32:25;;;;;;;1999.90;999.90;;;;;;;;;;6185342;23;20058;-81
2024/02/23 00:34:51;;;;;;;1999.90;999.90;;;;;;;;;;6184848;23;20021;-82
2024/02/23 00:37:18;;;;;;;1999.90;999.90;;;;;;;;;;6185271;23;20411;-81
2024/02/23 00:39:46;;;;;;;1999.90;999.90;;;;;;;;;;6184762;23;20021;-81
2024/02/23 00:42:12;;;;;;;1999.90;999.90;;;;;;;;;;6185201;23;20021;-83
2024/02/23 00:44:39;;;;;;;1999.90;999.90;;;;;;;;;;6184303;23;20017;-82
2024/02/23 00:47:06;;;;;;;1999.90;999.90;;;;;;;;;;6184344;23;20340;-80
2024/02/23 00:49:32;;;;;;;1999.90;999.90;;;;;;;;;;6184266;23;20043;-82
2024/02/23 00:51:59;;;;;;;1999.90;999.90;;;;;;;;;;6184771;23;20023;-81
2024/02/23 00:54:25;;;;;;;1999.90;999.90;;;;;;;;;;6184768;23;20031;-82
2024/02/23 00:56:53;;;;;;;1999.90;999.90;;;;;;;;;;6184453;23;20100;-81
2024/02/23 00:59:20;;;;;;;1999.90;999.90;;;;;;;;;;6184344;23;20017;-81
2024/02/23 01:01:47;;;;;;;1999.90;999.90;;;;;;;;;;6184099;23;20100;-82
2024/02/23 01:04:13;;;;;;;1999.90;999.90;;;;;;;;;;6184475;23;20021;-82
2024/02/23 01:06:40;;;;;;;1999.90;999.90;;;;;;;;;;6184071;23;20448;-81
2024/02/23 01:09:06;;;;;;;1999.90;999.90;;;;;;;;;;6184215;23;20021;-82
2024/02/23 01:11:33;;;;;;;1999.90;999.90;;;;;;;;;;6184512;23;20026;-81
2024/02/23 01:14:01;;;;;;;1999.90;999.90;;;;;;;;;;6185179;23;20023;-84
2024/02/23 01:16:27;;;;;;;1999.90;999.90;;;;;;;;;;6184825;23;20017;-81
2024/02/23 01:18:54;;;;;;;1999.90;999.90;;;;;;;;;;6184399;23;20468;-80
2024/02/23 01:21:20;;;;;;;1999.90;999.90;;;;;;;;;;6184467;23;20020;-81
2024/02/23 01:23:47;;;;;;;1999.90;999.90;;;;;;;;;;6184391;23;20092;-80
2024/02/23 01:26:14;;;;;;;1999.90;999.90;;;;;;;;;;6184115;23;20021;-81
2024/02/23 01:28:40;;;;;;;1999.90;999.90;;;;;;;;;;6185075;23;20029;-80
2024/02/23 01:31:11;;;;;;;1999.90;999.90;;;;;;;;;;6186362;23;20025;-81
2024/02/23 01:33:38;;;;;;;1999.90;999.90;;;;;;;;;;6185228;23;20017;-81
2024/02/23 01:36:05;;;;;;;1999.90;999.90;;;;;;;;;;6184999;23;20021;-81
2024/02/23 01:38:32;;;;;;;1999.90;999.90;;;;;;;;;;6184544;23;20025;-80
2024/02/23 01:40:59;;;;;;;1999.90;999.90;;;;;;;;;;6184498;23;20117;-82
2024/02/23 01:43:25;;;;;;;1999.90;999.90;;;;;;;;;;6185323;23;20025;-83
2024/02/23 01:45:52;;;;;;;1999.90;999.90;;;;;;;;;;6184545;23;20023;-82
2024/02/23 01:48:20;;;;;;;1999.90;999.90;;;;;;;;;;6184199;23;20021;-81
2024/02/23 01:50:47;;;;;;;1999.90;999.90;;;;;;;;;;6184544;23;20017;-80
2024/02/23 01:53:14;;;;;;;1999.90;999.90;;;;;;;;;;6184270;23;20017;-80
2024/02/23 01:55:41;;;;;;;1999.90;999.90;;;;;;;;;;6183335;23;20033;-80
2024/02/23 01:58:08;;;;;;;1999.90;999.90;;;;;;;;;;6183908;23;20032;-81
2024/02/23 02:00:35;;;;;;;1999.90;999.90;;;;;;;;;;6183710;23;20024;-80
2024/02/23 02:03:02;;;;;;;1999.90;999.90;;;;;;;;;;6183824;23;20051;-81
2024/02/23 02:05:30;;;;;;;1999.90;999.90;;;;;;;;;;6184244;23;20124;-81
2024/02/23 02:07:58;;;;;;;1999.90;999.90;;;;;;;;;;6183842;23;20108;-80
2024/02/23 02:10:25;;;;;;;1999.90;999.90;;;;;;;;;;6184111;23;20021;-80
2024/02/23 02:12:52;;;;;;;1999.90;999.90;;;;;;;;;;6183712;23;20021;-81
2024/02/23 02:15:18;;;;;;;1999.90;999.90;;;;;;;;;;6184042;23;20017;-81
2024/02/23 02:17:45;;;;;;;1999.90;999.90;;;;;;;;;;6183834;23;20028;-83
2024/02/23 02:20:13;;;;;;;1999.90;999.90;;;;;;;;;;6183701;23;20107;-81
2024/02/23 02:22:41;;;;;;;1999.90;999.90;;;;;;;;;;6183079;23;20686;-82
2024/02/23 02:25:08;;;;;;;1999.90;999.90;;;;;;;;;;6183097;23;20025;-82
2024/02/23 02:27:34;;;;;;;1999.90;999.90;;;;;;;;;;6183934;23;20343;-81
2024/02/23 02:30:01;;;;;;;1999.90;999.90;;;;;;;;;;6184375;23;20096;-80
2024/02/23 02:32:28;;;;;;;1999.90;999.90;;;;;;;;;;6183264;23;20539;-80
2024/02/23 02:34:54;;;;;;;1999.90;999.90;;;;;;;;;;6183770;23;20060;-81
2024/02/23 02:37:21;;;;;;;1999.90;999.90;;;;;;;;;;6183813;23;20021;-82
2024/02/23 02:39:49;;;;;;;1999.90;999.90;;;;;;;;;;6183207;23;20021;-81
2024/02/23 02:42:16;;;;;;;1999.90;999.90;;;;;;;;;;6182286;23;20017;-81
2024/02/23 02:44:42;;;;;;;1999.90;999.90;;;;;;;;;;6181997;23;20021;-81
2024/02/23 02:47:09;;;;;;;1999.90;999.90;;;;;;;;;;6181547;23;20048;-83
2024/02/23 02:49:35;;;;;;;1999.90;999.90;;;;;;;;;;6180837;23;20021;-80
2024/02/23 02:52:02;;;;;;;1999.90;999.90;;;;;;;;;;6181737;23;20031;-81
2024/02/23 02:54:28;;;;;;;1999.90;999.90;;;;;;;;;;6181093;23;20451;-81
2024/02/23 02:56:56;;;;;;;1999.90;999.90;;;;;;;;;;6181072;23;20031;-81
2024/02/23 02:59:23;;;;;;;1999.90;999.90;;;;;;;;;;6181580;23;20108;-81
2024/02/23 03:01:50;;;;;;;1999.90;999.90;;;;;;;;;;6181466;23;20021;-81
2024/02/23 03:04:16;;;;;;;1999.90;999.90;;;;;;;;;;6182273;23;20021;-81
2024/02/23 03:06:43;;;;;;;1999.90;999.90;;;;;;;;;;6183354;23;20052;-81
2024/02/23 03:09:09;;;;;;;1999.90;999.90;;;;;;;;;;6182439;23;20031;-81
2024/02/23 03:11:36;;;;;;;1999.90;999.90;;;;;;;;;;6183553;23;20100;-81
2024/02/23 03:14:04;;;;;;;1999.90;999.90;;;;;;;;;;6183114;23;20333;-80
2024/02/23 03:16:31;;;;;;;1999.90;999.90;;;;;;;;;;6182631;23;20017;-80
2024/02/23 03:18:58;;;;;;;1999.90;999.90;;;;;;;;;;6183011;23;20021;-80
2024/02/23 03:21:24;;;;;;;1999.90;999.90;;;;;;;;;;6183016;23;20468;-80
2024/02/23 03:23:51;;;;;;;1999.90;999.90;;;;;;;;;;6182972;23;20456;-81
2024/02/23 03:26:17;;;;;;;1999.90;999.90;;;;;;;;;;6182998;23;20027;-82
2024/02/23 03:28:44;;;;;;;1999.90;999.90;;;;;;;;;;6183189;23;20025;-80
2024/02/23 03:31:12;;;;;;;1999.90;999.90;;;;;;;;;;6182431;23;20104;-80
2024/02/23 03:33:38;;;;;;;1999.90;999.90;;;;;;;;;;6182811;23;20017;-80
2024/02/23 03:36:05;;;;;;;1999.90;999.90;;;;;;;;;;6182327;23;20550;-80
2024/02/23 03:38:33;;;;;;;1999.90;999.90;;;;;;;;;;6182669;23;20434;-80
2024/02/23 03:41:00;;;;;;;1999.90;999.90;;;;;;;;;;6182546;23;20020;-80
2024/02/23 03:43:26;;;;;;;1999.90;999.90;;;;;;;;;;6182576;23;20047;-79
2024/02/23 03:45:53;;;;;;;1999.90;999.90;;;;;;;;;;6182453;23;20021;-80
2024/02/23 03:48:21;;;;;;;1999.90;999.90;;;;;;;;;;6182250;23;20017;-80
2024/02/23 03:50:47;;;;;;;1999.90;999.90;;;;;;;;;;6182221;23;20025;-80
2024/02/23 03:53:14;;;;;;;1999.90;999.90;;;;;;;;;;6182242;23;20021;-80
2024/02/23 03:55:41;;;;;;;1999.90;999.90;;;;;;;;;;6182262;23;20099;-80
2024/02/23 03:58:07;;;;;;;1999.90;999.90;;;;;;;;;;6182476;23;20055;-81
2024/02/23 04:00:34;;;;;;;1999.90;999.90;;;;;;;;;;6181931;23;20017;-80
2024/02/23 04:03:00;;;;;;;1999.90;999.90;;;;;;;;;;6181901;23;20017;-79
2024/02/23 04:05:28;;;;;;;1999.90;999.90;;;;;;;;;;6181566;23;20321;-80
2024/02/23 04:07:54;;;;;;;1999.90;999.90;;;;;;;;;;6182182;23;20456;-81
2024/02/23 04:10:21;;;;;;;1999.90;999.90;;;;;;;;;;6181920;23;20121;-80
2024/02/23 04:12:48;;;;;;;1999.90;999.90;;;;;;;;;;6182398;23;20410;-80
2024/02/23 04:15:14;;;;;;;1999.90;999.90;;;;;;;;;;6182564;23;20027;-80
2024/02/23 04:17:41;;;;;;;1999.90;999.90;;;;;;;;;;6182407;23;20025;-79
2024/02/23 04:20:09;;;;;;;1999.90;999.90;;;;;;;;;;6182388;23;20313;-81
2024/02/23 04:22:37;;;;;;;1999.90;999.90;;;;;;;;;;6183095;23;20017;-80
2024/02/23 04:25:04;;;;;;;1999.90;999.90;;;;;;;;;;6182745;23;20017;-84
2024/02/23 04:27:31;;;;;;;1999.90;999.90;;;;;;;;;;6181843;23;20021;-81
2024/02/23 04:29:58;;;;;;;1999.90;999.90;;;;;;;;;;6182113;23;20111;-80
2024/02/23 04:32:24;;;;;;;1999.90;999.90;;;;;;;;;;6182997;23;20021;-80
2024/02/23 04:34:51;;;;;;;1999.90;999.90;;;;;;;;;;6184153;23;20028;-82
2024/02/23 04:37:17;;;;;;;1999.90;999.90;;;;;;;;;;6183887;23;20029;-84
2024/02/23 04:39:46;;;;;;;1999.90;999.90;;;;;;;;;;6183868;23;20044;-81
2024/02/23 04:42:12;;;;;;;1999.90;999.90;;;;;;;;;;6184133;23;20021;-81
2024/02/23 04:44:39;;;;;;;1999.90;999.90;;;;;;;;;;6182552;23;20031;-79
2024/02/23 04:47:06;;;;;;;1999.90;999.90;;;;;;;;;;6183251;23;20096;-79
2024/02/23 04:49:32;;;;;;;1999.90;999.90;;;;;;;;;;6183095;23;20037;-83
2024/02/23 04:51:59;;;;;;;1999.90;999.90;;;;;;;;;;6183966;23;20028;-79
2024/02/23 04:54:25;;;;;;;1999.90;999.90;;;;;;;;;;6183956;23;20029;-81
2024/02/23 04:56:53;;;;;;;1999.90;999.90;;;;;;;;;;6185045;23;20076;-80
2024/02/23 04:59:20;;;;;;;1999.90;999.90;;;;;;;;;;6185025;23;20021;-80
2024/02/23 05:01:47;;;;;;;1999.90;999.90;;;;;;;;;;6185101;23;20024;-79
2024/02/23 05:04:13;;;;;;;1999.90;999.90;;;;;;;;;;6185773;23;20087;-79
2024/02/23 05:06:40;;;;;;;1999.90;999.90;;;;;;;;;;6185838;23;20021;-79
2024/02/23 05:09:09;;;;;;;1999.90;999.90;;;;;;;;;;6183420;23;20456;-80
2024/02/23 05:11:35;;;;;;;1999.90;999.90;;;;;;;;;;6183634;23;20092;-80
2024/02/23 05:14:03;;;;;;;1999.90;999.90;;;;;;;;;;6183882;23;20313;-80
2024/02/23 05:16:30;;;;;;;1999.90;999.90;;;;;;;;;;6185274;23;20025;-80
2024/02/23 05:18:56;;;;;;;1999.90;999.90;;;;;;;;;;6186804;23;20033;-81
2024/02/23 05:21:23;;;;;;;1999.90;999.90;;;;;;;;;;6184833;23;20100;-79
2024/02/23 05:23:49;;;;;;;1999.90;999.90;;;;;;;;;;6183427;23;20344;-80
2024/02/23 05:26:16;;;;;;;1999.90;999.90;;;;;;;;;;6183841;23;20021;-79
2024/02/23 05:28:42;;;;;;;1999.90;999.90;;;;;;;;;;6183871;23;20025;-80
2024/02/23 05:31:11;;;;;;;1999.90;999.90;;;;;;;;;;6183584;23;20021;-79
2024/02/23 05:33:38;;;;;;;1999.90;999.90;;;;;;;;;;6183637;23;20032;-81
2024/02/23 05:36:05;;;;;;;1999.90;999.90;;;;;;;;;;6183411;23;20021;-79
2024/02/23 05:38:32;;;;;;;1999.90;999.90;;;;;;;;;;6182886;23;20031;-80
2024/02/23 05:40:58;;;;;;;1999.90;999.90;;;;;;;;;;6182573;23;20099;-80
2024/02/23 05:43:25;;;;;;;1999.90;999.90;;;;;;;;;;6182887;23;20100;-80
2024/02/23 05:45:52;;;;;;;1999.90;999.90;;;;;;;;;;6182879;23;20021;-80
2024/02/23 05:48:20;;;;;;;1999.90;999.90;;;;;;;;;;6182346;23;20536;-80
2024/02/23 05:50:47;;;;;;;1999.90;999.90;;;;;;;;;;6182705;23;20021;-80
2024/02/23 05:53:20;;;;;;;1999.90;999.90;;;;;;;;;;6183822;23;20100;-80
2024/02/23 05:55:46;;;;;;;1999.90;999.90;;;;;;;;;;6183735;23;20071;-80
2024/02/23 05:58:16;;;;;;;1999.90;999.90;;;;;;;;;;6183215;23;20390;-80
2024/02/23 06:00:42;;;;;;;1999.90;999.90;;;;;;;;;;6182766;23;20071;-80
2024/02/23 06:03:09;;;;;;;1999.90;999.90;;;;;;;;;;6182172;23;20028;-80
2024/02/23 06:05:37;;;;;;;1999.90;999.90;;;;;;;;;;6183187;23;20027;-79
2024/02/23 06:08:04;;;;;;;1999.90;999.90;;;;;;;;;;6183740;23;20029;-82
2024/02/23 06:10:30;;;;;;;1999.90;999.90;;;;;;;;;;6183421;23;20024;-79
2024/02/23 06:12:57;;;;;;;1999.90;999.90;;;;;;;;;;6184072;23;20017;-80
2024/02/23 06:15:23;;;;;;;1999.90;999.90;;;;;;;;;;6183565;23;20027;-80
2024/02/23 06:17:50;;;;;;;1999.90;999.90;;;;;;;;;;6183690;23;20100;-80
2024/02/23 06:20:17;;;;;;;1999.90;999.90;;;;;;;;;;6183550;23;20083;-79
2024/02/23 06:22:45;;;;;;;1999.90;999.90;;;;;;;;;;6183720;23;20024;-79
2024/02/23 06:25:12;;;;;;;1999.90;999.90;;;;;;;;;;6184229;23;20021;-79
2024/02/23 06:27:38;;;;;;;1999.90;999.90;;;;;;;;;;6184090;23;20020;-79
2024/02/23 06:30:06;;;;;;;1999.90;999.90;;;;;;;;;;6183844;23;20024;-79
2024/02/23 06:32:32;;;;;;;1999.90;999.90;;;;;;;;;;6183700;23;20018;-83
2024/02/23 06:34:59;;;;;;;1999.90;999.90;;;;;;;;;;6183481;23;20025;-79
2024/02/23 06:37:25;;;;;;;1999.90;999.90;;;;;;;;;;6182957;23;20028;-79
2024/02/23 06:39:54;;;;;;;1999.90;999.90;;;;;;;;;;6182966;23;20109;-80
2024/02/23 06:42:21;;;;;;;1999.90;999.90;;;;;;;;;;6182911;23;20443;-80
2024/02/23 06:44:48;;;;;;;1999.90;999.90;;;;;;;;;;6182144;23;20031;-84
2024/02/23 06:47:14;;;;;;;1999.90;999.90;;;;;;;;;;6182232;23;20021;-79
2024/02/23 06:49:42;;;;;;;1999.90;999.90;;;;;;;;;;6181993;23;20056;-80
2024/02/23 06:52:08;;;;;;;1999.90;999.90;;;;;;;;;;6182763;23;20025;-80
2024/02/23 06:54:35;;;;;;;1999.90;999.90;;;;;;;;;;6182827;23;20343;-80
2024/02/23 06:57:03;;;;;;;1999.90;999.90;;;;;;;;;;6183111;23;20017;-80
2024/02/23 06:59:30;;;;;;;1999.90;999.90;;;;;;;;;;6182905;23;20056;-81
2024/02/23 07:01:56;;;;;;;1999.90;999.90;;;;;;;;;;6182690;23;20017;-79
2024/02/23 07:04:23;;;;;;;1999.90;999.90;;;;;;;;;;6183560;23;20021;-81
2024/02/23 07:06:49;;;;;;;1999.90;999.90;;;;;;;;;;6182724;23;20321;-80
2024/02/23 07:09:16;;;;;;;1999.90;999.90;;;;;;;;;;6181782;23;20031;-80
2024/02/23 07:11:43;;;;;;;1999.90;999.90;;;;;;;;;;6182586;23;20019;-80
2024/02/23 07:14:14;;;;;;;1999.90;999.90;;;;;;;;;;6182080;23;20021;-80
2024/02/23 07:16:40;;;;;;;1999.90;999.90;;;;;;;;;;6182848;23;20360;-80
2024/02/23 07:19:08;;;;;;;1999.90;999.90;;;;;;;;;;6182860;23;20020;-81
2024/02/23 07:21:34;;;;;;;1999.90;999.90;;;;;;;;;;6181930;23;20534;-80
2024/02/23 07:24:01;;;;;;;1999.90;999.90;;;;;;;;;;6183122;23;20021;-81
2024/02/23 07:26:29;;;;;;;1999.90;999.90;;;;;;;;;;6182359;23;20128;-81
2024/02/23 07:28:55;;;;;;;1999.90;999.90;;;;;;;;;;6181761;23;20048;-79
2024/02/23 07:31:23;;;;;;;1999.90;999.90;;;;;;;;;;6182745;23;20092;-80
2024/02/23 07:33:50;;;;;;;1999.90;999.90;;;;;;;;;;6181955;23;20507;-80
2024/02/23 07:36:17;;;;;;;1999.90;999.90;;;;;;;;;;6182477;23;20021;-80
2024/02/23 07:38:44;;;;;;;1999.90;999.90;;;;;;;;;;6183211;23;20099;-80
2024/02/23 07:41:10;;;;;;;1999.90;999.90;;;;;;;;;;6182186;23;20021;-79
2024/02/23 07:43:37;;;;;;;1999.90;999.90;;;;;;;;;;6182838;23;20023;-79
2024/02/23 07:46:04;;;;;;;1999.90;999.90;;;;;;;;;;6182789;23;20419;-81
2024/02/23 07:48:32;;;;;;;1999.90;999.90;;;;;;;;;;6182868;23;20028;-80
2024/02/23 07:50:59;;;;;;;1999.90;999.90;;;;;;;;;;6182312;23;20029;-82
2024/02/23 07:53:25;;;;;;;1999.90;999.90;;;;;;;;;;6182268;23;20032;-80
2024/02/23 07:55:52;;;;;;;1999.90;999.90;;;;;;;;;;6182744;23;20474;-79
2024/02/23 07:58:19;;;;;;;1999.90;999.90;;;;;;;;;;6183710;23;20025;-81
2024/02/23 08:00:46;;;;;;;1999.90;999.90;;;;;;;;;;6183414;23;20025;-80
2024/02/23 08:03:13;;;;;;;1999.90;999.90;;;;;;;;;;6184210;23;20021;-80
2024/02/23 08:05:41;;;;;;;1999.90;999.90;;;;;;;;;;6185302;23;20021;-82
2024/02/23 08:08:07;;;;;;;1999.90;999.90;;;;;;;;;;6185779;23;20017;-79
2024/02/23 08:10:34;;;;;;;1999.90;999.90;;;;;;;;;;6185143;23;20028;-80
2024/02/23 08:13:01;;;;;;;1999.90;999.90;;;;;;;;;;6184644;23;20028;-80
2024/02/23 08:15:27;;;;;;;1999.90;999.90;;;;;;;;;;6184141;23;20032;-80
2024/02/23 08:17:54;;;;;;;1999.90;999.90;;;;;;;;;;6184016;23;20027;-80
2024/02/23 08:20:21;;;;;;;1999.90;999.90;;;;;;;;;;6184691;23;20048;-80
2024/02/23 08:22:52;;;;;;;1999.90;999.90;;;;;;;;;;6184106;23;20049;-82
2024/02/23 08:25:18;;;;;;;1999.90;999.90;;;;;;;;;;6184345;23;20024;-80
2024/02/23 08:27:45;;;;;;;1999.90;999.90;;;;;;;;;;6184108;23;20020;-80
2024/02/23 08:30:12;;;;;;;1999.90;999.90;;;;;;;;;;6182424;23;20021;-80
2024/02/23 08:32:39;;;;;;;1999.90;999.90;;;;;;;;;;6182649;23;20403;-80
2024/02/23 08:35:06;;;;;;;1999.90;999.90;;;;;;;;;;6183659;23;20021;-80
2024/02/23 08:37:33;;;;;;;1999.90;999.90;;;;;;;;;;6184724;23;20025;-80
2024/02/23 08:40:01;;;;;;;1999.90;999.90;;;;;;;;;;6184744;23;20039;-81
2024/02/23 08:42:27;;;;;;;1999.90;999.90;;;;;;;;;;6184230;23;20017;-80
2024/02/23 08:44:55;;;;;;;1999.90;999.90;;;;;;;;;;6184129;23;20021;-82
2024/02/23 08:47:21;;;;;;;1999.90;999.90;;;;;;;;;;6183947;23;20017;-80
2024/02/23 08:49:47;;;;;;;1999.90;999.90;;;;;;;;;;6183793;23;20021;-81
2024/02/23 08:52:14;;;;;;;1999.90;999.90;;;;;;;;;;6183938;23;20021;-80
2024/02/23 08:54:41;;;;;;;1999.90;999.90;;;;;;;;;;6183839;23;20036;-80
2024/02/23 08:57:08;;;;;;;1999.90;999.90;;;;;;;;;;6184146;23;20017;-79
2024/02/23 08:59:35;;;;;;;1999.90;999.90;;;;;;;;;;6183898;23;20523;-79
2024/02/23 09:02:02;;;;;;;1999.90;999.90;;;;;;;;;;6183505;23;20021;-80
2024/02/23 09:04:29;;;;;;;1999.90;999.90;;;;;;;;;;6183772;23;20079;-80
2024/02/23 09:06:55;;;;;;;1999.90;999.90;;;;;;;;;;6183472;23;20055;-80
2024/02/23 09:09:22;;;;;;;1999.90;999.90;;;;;;;;;;6183565;23;20021;-80
2024/02/23 09:11:48;;;;;;;1999.90;999.90;;;;;;;;;;6183805;23;20017;-79
2024/02/23 09:14:16;;;;;;;1999.90;999.90;;;;;;;;;;6184268;23;20025;-80
2024/02/23 09:16:42;;;;;;;1999.90;999.90;;;;;;;;;;6184884;23;20023;-80
2024/02/23 09:19:09;;;;;;;1999.90;999.90;;;;;;;;;;6185356;23;20490;-79
2024/02/23 09:21:35;;;;;;;1999.90;999.90;;;;;;;;;;6184339;23;20096;-79
2024/02/23 09:24:14;;;;;;;1999.90;999.90;;;;;;;;;;6184343;23;20017;-79
2024/02/23 09:26:41;;;;;;;1999.90;999.90;;;;;;;;;;6182938;23;20083;-80
2024/02/23 09:29:07;;;;;;;1999.90;999.90;;;;;;;;;;6183666;23;20059;-80
2024/02/23 09:31:35;;;;;;;1999.90;999.90;;;;;;;;;;6183422;23;20322;-80
2024/02/23 09:34:02;;;;;;;1999.90;999.90;;;;;;;;;;6183300;23;20021;-80
2024/02/23 09:36:30;;;;;;;1999.90;999.90;;;;;;;;;;6183737;23;20033;-79
2024/02/23 09:38:56;;;;;;;1999.90;999.90;;;;;;;;;;6183668;23;20032;-80
2024/02/23 09:41:24;;;;;;;1999.90;999.90;;;;;;;;;;6183452;23;20025;-81
2024/02/23 09:43:52;;;;;;;1999.90;999.90;;;;;;;;;;6183364;23;20120;-81
2024/02/23 09:46:19;;;;;;;1999.90;999.90;;;;;;;;;;6182694;23;20025;-81
2024/02/23 09:48:50;;;;;;;1999.90;999.90;;;;;;;;;;6183138;23;20464;-80
2024/02/23 09:51:17;;;;;;;1999.90;999.90;;;;;;;;;;6183786;23;20020;-79
2024/02/23 09:53:44;;;;;;;1999.90;999.90;;;;;;;;;;6183368;23;20023;-79
2024/02/23 09:56:11;;;;;;;1999.90;999.90;;;;;;;;;;6183371;23;20100;-79
2024/02/23 09:58:38;;;;;;;1999.90;999.90;;;;;;;;;;6182757;23;20466;-79
2024/02/23 10:01:05;;;;;;;1999.90;999.90;;;;;;;;;;6183269;23;20032;-80
2024/02/23 10:03:32;;;;;;;1999.90;999.90;;;;;;;;;;6183511;23;20328;-79
2024/02/23 10:06:01;;;;;;;1999.90;999.90;;;;;;;;;;6183565;23;20028;-79
2024/02/23 10:08:27;;;;;;;1999.90;999.90;;;;;;;;;;6183660;23;20385;-80
2024/02/23 10:10:55;;;;;;;1999.90;999.90;;;;;;;;;;6182846;23;20021;-79
2024/02/23 10:13:23;;;;;;;1999.90;999.90;;;;;;;;;;6182597;23;20531;-80
2024/02/23 10:15:50;;;;;;;1999.90;999.90;;;;;;;;;;6183372;23;20024;-80
2024/02/23 10:18:17;;;;;;;1999.90;999.90;;;;;;;;;;6182770;23;20456;-80
2024/02/23 10:20:44;;;;;;;1999.90;999.90;;;;;;;;;;6182679;23;20100;-80
2024/02/23 10:23:12;;;;;;;1999.90;999.90;;;;;;;;;;6182970;23;20032;-79
2024/02/23 10:25:39;;;;;;;1999.90;999.90;;;;;;;;;;6183266;23;20056;-80
2024/02/23 10:28:06;;;;;;;1999.90;999.90;;;;;;;;;;6182392;23;20375;-82
2024/02/23 10:30:33;;;;;;;1999.90;999.90;;;;;;;;;;6182742;23;20023;-80
2024/02/23 10:33:00;;;;;;;1999.90;999.90;;;;;;;;;;6183320;23;20027;-80
2024/02/23 10:35:27;;;;;;;1999.90;999.90;;;;;;;;;;6182766;23;20023;-80
2024/02/23 10:37:55;;;;;;;1999.90;999.90;;;;;;;;;;6183215;23;20021;-82
2024/02/23 10:40:23;;;;;;;1999.90;999.90;;;;;;;;;;6183013;23;20329;-80
2024/02/23 10:42:51;;;;;;;1999.90;999.90;;;;;;;;;;6183223;23;20025;-81
2024/02/23 10:45:18;;;;;;;1999.90;999.90;;;;;;;;;;6182988;23;20063;-80
2024/02/23 10:47:45;;;;;;;1999.90;999.90;;;;;;;;;;6182924;23;20017;-80
2024/02/23 10:50:14;;;;;;;1999.90;999.90;;;;;;;;;;6182866;23;20025;-79
2024/02/23 10:52:50;;;;;;;1999.90;999.90;;;;;;;;;;6182907;23;20032;-80
2024/02/23 10:55:16;;;;;;;1999.90;999.90;;;;;;;;;;6182467;23;20109;-80
2024/02/23 10:57:44;;;;;;;1999.90;999.90;;;;;;;;;;6182319;23;20096;-80
2024/02/23 11:00:12;;;;;;;1999.90;999.90;;;;;;;;;;6182174;23;20033;-80
2024/02/23 11:02:41;;;;;;;1999.90;999.90;;;;;;;;;;6182313;23;20021;-80
2024/02/23 11:05:09;;;;;;;1999.90;999.90;;;;;;;;;;6182353;23;20494;-81
2024/02/23 11:07:39;;;;;;;1999.90;999.90;;;;;;;;;;6183150;23;20396;-82
2024/02/23 11:10:06;;;;;;;1999.90;999.90;;;;;;;;;;6182813;23;20031;-82
2024/02/23 11:12:32;;;;;;;1999.90;999.90;;;;;;;;;;6183310;23;20032;-79
2024/02/23 11:15:01;;;;;;;1999.90;999.90;;;;;;;;;;6182412;23;20017;-81
2024/02/23 11:17:29;;;;;;;1999.90;999.90;;;;;;;;;;6182832;23;20027;-81
2024/02/23 11:19:56;;;;;;;1999.90;999.90;;;;;;;;;;6182606;23;20025;-80
2024/02/23 11:22:27;;;;;;;1999.90;999.90;;;;;;;;;;6181725;23;20145;-80
2024/02/23 11:24:54;;;;;;;1999.90;999.90;;;;;;;;;;6182192;23;20017;-81
2024/02/23 11:27:20;;;;;;;1999.90;999.90;;;;;;;;;;6182374;23;20025;-80
2024/02/23 11:29:48;;;;;;;1999.90;999.90;;;;;;;;;;6182121;23;20096;-80
2024/02/23 11:32:17;;;;;;;1999.90;999.90;;;;;;;;;;6181996;23;20024;-79
2024/02/23 11:34:55;;;;;;;1999.90;999.90;;;;;;;;;;6181647;23;20344;-81
2024/02/23 11:37:22;;;;;;;1999.90;999.90;;;;;;;;;;6182287;23;20080;-80
2024/02/23 11:39:49;;;;;;;1999.90;999.90;;;;;;;;;;6182676;23;20021;-81
2024/02/23 11:42:15;;;;;;;1999.90;999.90;;;;;;;;;;6183830;23;20021;-80
2024/02/23 11:44:42;;;;;;;1999.90;999.90;;;;;;;;;;6184004;23;20017;-80
2024/02/23 11:47:08;;;;;;;1999.90;999.90;;;;;;;;;;6183788;23;20036;-82
2024/02/23 11:49:36;;;;;;;1999.90;999.90;;;;;;;;;;6183904;23;20339;-80
2024/02/23 11:52:03;;;;;;;1999.90;999.90;;;;;;;;;;6184142;23;20017;-80
2024/02/23 11:54:31;;;;;;;1999.90;999.90;;;;;;;;;;6184029;23;20028;-81
2024/02/23 11:56:57;;;;;;;1999.90;999.90;;;;;;;;;;6184392;23;20021;-80
2024/02/23 11:59:26;;;;;;;1999.90;999.90;;;;;;;;;;6183971;23;20491;-79
2024/02/23 12:01:52;;;;;;;1999.90;999.90;;;;;;;;;;6183464;23;20100;-80
2024/02/23 12:04:19;;;;;;;1999.90;999.90;;;;;;;;;;6184240;23;20017;-80
2024/02/23 12:06:47;;;;;;;1999.90;999.90;;;;;;;;;;6183735;23;20336;-80
2024/02/23 12:09:14;;;;;;;1999.90;999.90;;;;;;;;;;6183978;23;20091;-80
2024/02/23 12:11:41;;;;;;;1999.90;999.90;;;;;;;;;;6183655;23;20029;-79
2024/02/23 12:14:08;;;;;;;1999.90;999.90;;;;;;;;;;6183816;23;20053;-82
2024/02/23 12:16:35;;;;;;;1999.90;999.90;;;;;;;;;;6183805;23;20104;-80
2024/02/23 12:19:02;;;;;;;1999.90;999.90;;;;;;;;;;6184060;23;20020;-81
2024/02/23 12:21:29;;;;;;;1999.90;999.90;;;;;;;;;;6183943;23;20025;-80
2024/02/23 12:23:57;;;;;;;1999.90;999.90;;;;;;;;;;6183644;23;20021;-80
2024/02/23 12:26:23;;;;;;;1999.90;999.90;;;;;;;;;;6184279;23;20017;-80
2024/02/23 12:28:50;;;;;;;1999.90;999.90;;;;;;;;;;6183993;23;20017;-80
2024/02/23 12:31:16;;;;;;;1999.90;999.90;;;;;;;;;;6183988;23;20025;-80
2024/02/23 12:33:47;;;;;;;1999.90;999.90;;;;;;;;;;6183939;23;20021;-82
2024/02/23 12:36:14;;;;;;;1999.90;999.90;;;;;;;;;;6183644;23;20029;-80
2024/02/23 12:38:40;;;;;;;1999.90;999.90;;;;;;;;;;6183032;23;20031;-80
2024/02/23 12:41:08;;;;;;;1999.90;999.90;;;;;;;;;;6183377;23;20108;-80
2024/02/23 12:43:35;;;;;;;1999.90;999.90;;;;;;;;;;6183195;23;20048;-80
2024/02/23 12:46:03;;;;;;;1999.90;999.90;;;;;;;;;;6183125;23;20029;-79
2024/02/23 12:48:30;;;;;;;1999.90;999.90;;;;;;;;;;6182686;23;20068;-82
2024/02/23 12:50:56;;;;;;;1999.90;999.90;;;;;;;;;;6182932;23;20025;-79
2024/02/23 12:53:34;;;;;;;1999.90;999.90;;;;;;;;;;6183350;23;20033;-80
2024/02/23 12:56:01;;;;;;;1999.90;999.90;;;;;;;;;;6183240;23;20025;-80
2024/02/23 12:58:29;;;;;;;1999.90;999.90;;;;;;;;;;6183347;23;20032;-81
2024/02/23 13:00:57;;;;;;;1999.90;999.90;;;;;;;;;;6183420;23;20104;-80
2024/02/23 13:03:24;;;;;;;1999.90;999.90;;;;;;;;;;6183145;23;20021;-80
2024/02/23 13:05:50;;;;;;;1999.90;999.90;;;;;;;;;;6182800;23;20021;-81
2024/02/23 13:08:17;;;;;;;1999.90;999.90;;;;;;;;;;6185132;23;20076;-80
2024/02/23 13:10:44;;;;;;;1999.90;999.90;;;;;;;;;;6188175;23;20500;-80
2024/02/23 13:13:10;;;;;;;1999.90;999.90;;;;;;;;;;6189679;23;20077;-79
2024/02/23 13:15:38;;;;;;;1999.90;999.90;;;;;;;;;;6183819;23;20464;-80
2024/02/23 13:18:05;;;;;;;1999.90;999.90;;;;;;;;;;6183816;23;20028;-80
2024/02/23 13:20:32;;;;;;;1999.90;999.90;;;;;;;;;;6183447;23;20025;-81
2024/02/23 13:22:59;;;;;;;1999.90;999.90;;;;;;;;;;6183219;23;20021;-80
2024/02/23 13:25:25;;;;;;;1999.90;999.90;;;;;;;;;;6183022;23;20333;-80
2024/02/23 13:27:52;;;;;;;1999.90;999.90;;;;;;;;;;6183211;23;20024;-81
2024/02/23 13:30:19;;;;;;;1999.90;999.90;;;;;;;;;;6183312;23;20053;-80
2024/02/23 13:32:47;;;;;;;1999.90;999.90;;;;;;;;;;6182462;23;20025;-80
2024/02/23 13:35:14;;;;;;;1999.90;999.90;;;;;;;;;;6182533;23;20043;-79
2024/02/23 13:37:40;;;;;;;1999.90;999.90;;;;;;;;;;6182664;23;20033;-81
2024/02/23 13:40:09;;;;;;;1999.90;999.90;;;;;;;;;;6182317;23;20108;-81